Flight Track Log - Related Links

Times and Time Zones

All times are in EST time to prevent confusion due to time zone crossing. See the SWA4254 flight status page for this flight to view local times or setup timezone preferences in your user account.

Time Position Orientation Groundspeed Altitude Reporting Facility
EST Latitude Longitude Course Direction KTS MPH feet Rate Location/Type
Thu 08:16:16 PM 39.8833 -104.5833 102° East 181 208 7,100  Level Denver TRACON
Thu 08:17:16 PM 39.8667 -104.4833 102° East 279 321 9,200 2,150 Climbing Denver TRACON
Thu 08:18:16 PM 39.8667 -104.3667 90° East 317 365 11,400 2,459 Climbing Denver TRACON
Thu 08:19:18 PM 39.8747 -104.2478 85° East 352 405 14,200 2,806 Climbing Denver Center
Thu 08:20:20 PM 39.8772 -104.1122 89° East 369 425 17,200 2,934 Climbing Denver Center
Thu 08:21:35 PM 39.8797 -103.9367 89° East 389 448 20,900 2,584 Climbing Denver Center
Thu 08:22:37 PM 39.8819 -103.7808 89° East 398 458 23,100 1,984 Climbing Denver Center
Thu 08:23:39 PM 39.8892 -103.6439 86° East 409 471 25,000 2,081 Climbing Denver Center
Thu 08:24:41 PM 39.9164 -103.4611 79° East 435 501 27,400 2,032 Climbing Denver Center
Thu 08:25:43 PM 39.9400 -103.3025 79° East 441 507 29,200 1,548 Climbing Denver Center
Thu 08:26:45 PM 39.9642 -103.1394 79° East 451 519 30,600 1,268 Climbing Denver Center
Thu 08:27:46 PM 39.9853 -102.9989 79° East 462 532 31,800 1,403 Climbing Denver Center
Thu 08:28:49 PM 40.0144 -102.7997 79° East 474 545 33,500 1,440 Climbing Denver Center
Thu 08:29:51 PM 40.0406 -102.6228 79° East 479 551 34,800 1,258 Climbing Denver Center
Thu 08:30:53 PM 40.0700 -102.4289 79° East 486 559 36,100 1,065 Climbing Denver Center
Thu 08:31:55 PM 40.0919 -102.2600 80° East 491 565 37,000 435 Climbing Denver Center
Thu 08:32:57 PM 40.1153 -102.0933 80° East 490 564 37,000  Level Denver Center
Thu 08:33:59 PM 40.1417 -101.8972 80° East 491 565 37,000  Level Denver Center
Thu 08:35:01 PM 40.1644 -101.7311 80° East 489 563 37,000  Level Denver Center
Thu 08:36:03 PM 40.1917 -101.5367 80° East 489 563 37,000  Level Denver Center
Thu 08:37:05 PM 40.2133 -101.3703 80° East 488 562 37,000  Level Denver Center
Thu 08:38:06 PM 40.2394 -101.1781 80° East 484 557 37,000  Level Denver Center
Thu 08:39:08 PM 40.2614 -101.0133 80° East 483 556 37,000  Level Denver Center
Thu 08:40:10 PM 40.2861 -100.8186 80° East 487 560 37,000  Level Denver Center
Thu 08:41:12 PM 40.3072 -100.6517 81° East 488 562 37,000  Level Denver Center
Thu 08:42:14 PM 40.3317 -100.4564 81° East 489 563 37,000  Level Denver Center
Thu 08:43:15 PM 40.3519 -100.2883 81° East 491 565 37,000  Level Denver Center
Thu 08:44:17 PM 40.3767 -100.0914 81° East 492 566 37,000  Level Denver Center
Thu 08:45:19 PM 40.3972 -99.9219 81° East 493 567 37,000  Level Denver Center
Thu 08:46:21 PM 40.4175 -99.7489 81° East 495 570 37,000  Level Denver Center
Thu 08:47:23 PM 40.4386 -99.5708 81° East 495 570 37,000  Level Denver Center
Thu 08:48:24 PM 40.4631 -99.3569 81° East 495 570 37,000  Level Denver Center
Thu 08:49:26 PM 40.4839 -99.1783 81° East 497 572 37,000  Level Denver Center
Thu 08:50:12 PM 40.5008 -99.0350 81° East 499 574 37,000  Level Minneapolis Center
Thu 08:51:13 PM 40.5203 -98.8556 82° East 499 574 37,000  Level Minneapolis Center
Thu 08:52:15 PM 40.5397 -98.6744 82° East 501 577 37,000  Level Minneapolis Center
Thu 08:53:17 PM 40.5583 -98.4950 82° East 501 577 37,000  Level Minneapolis Center
Thu 08:54:19 PM 40.5781 -98.3150 82° East 501 577 37,000  Level Minneapolis Center
Thu 08:55:21 PM 40.5964 -98.1333 82° East 502 578 37,000  Level Minneapolis Center
Thu 08:56:23 PM 40.6192 -97.9156 82° East 503 579 37,000  Level Minneapolis Center
Thu 08:57:25 PM 40.6375 -97.7344 82° East 502 578 37,000  Level Minneapolis Center
Thu 08:58:27 PM 40.6550 -97.5514 83° East 503 579 37,000  Level Minneapolis Center
Thu 08:59:28 PM 40.6731 -97.3686 83° East 504 580 37,000  Level Minneapolis Center
Thu 09:00:30 PM 40.6914 -97.1744 83° East 503 579 37,000  Level Minneapolis Center
Thu 09:01:32 PM 40.7083 -96.9917 83° East 504 580 37,000  Level Minneapolis Center
Thu 09:02:34 PM 40.7258 -96.8092 83° East 505 581 37,000  Level Minneapolis Center
Thu 09:03:36 PM 40.7428 -96.6256 83° East 506 582 37,000  Level Minneapolis Center
Thu 09:04:38 PM 40.7628 -96.4053 83° East 507 583 37,000  Level Minneapolis Center
Thu 09:05:40 PM 40.7789 -96.2231 83° East 505 581 37,000  Level Minneapolis Center
Thu 09:06:42 PM 40.7942 -96.0411 84° East 504 580 37,000  Level Minneapolis Center
Thu 09:07:44 PM 40.8092 -95.8586 84° East 504 580 37,000  Level Minneapolis Center
Thu 09:08:46 PM 40.8239 -95.6764 84° East 504 580 37,000  Level Minneapolis Center
Thu 09:09:48 PM 40.8392 -95.4922 84° East 506 582 37,000  Level Minneapolis Center
Thu 09:10:49 PM 40.8569 -95.2722 84° East 506 582 37,000  Level Minneapolis Center
Thu 09:11:51 PM 40.8711 -95.0892 84° East 505 581 37,000  Level Minneapolis Center
Thu 09:12:53 PM 40.8850 -94.9047 84° East 505 581 37,000  Level Minneapolis Center
Thu 09:13:55 PM 40.8989 -94.7206 84° East 505 581 37,000  Level Minneapolis Center
Thu 09:14:57 PM 40.9117 -94.5375 85° East 506 582 37,000  Level Minneapolis Center
Thu 09:15:59 PM 40.9244 -94.3536 85° East 506 582 37,000  Level Minneapolis Center
Thu 09:17:00 PM 40.9400 -94.1333 85° East 505 581 37,000  Level Minneapolis Center
Thu 09:18:02 PM 40.9536 -93.9486 84° East 505 581 37,000  Level Minneapolis Center
Thu 09:19:04 PM 40.9667 -93.7628 85° East 507 583 37,000  Level Minneapolis Center
Thu 09:20:06 PM 40.9753 -93.5789 86° East 506 582 37,000  Level Minneapolis Center
Thu 09:21:08 PM 40.9869 -93.3928 85° East 507 583 37,000  Level Minneapolis Center
Thu 09:22:10 PM 40.9981 -93.2081 85° East 507 583 37,000  Level Minneapolis Center
Thu 09:23:11 PM 41.0100 -93.0203 85° East 509 586 37,000  Level Minneapolis Center
Thu 09:24:16 PM 41.0219 -92.7947 86° East 508 585 37,000  Level Chicago Center
Thu 09:25:18 PM 41.0331 -92.6086 85° East 508 585 37,000  Level Chicago Center
Thu 09:26:20 PM 41.0431 -92.4211 86° East 509 586 37,000  Level Chicago Center
Thu 09:27:22 PM 41.0528 -92.2342 86° East 510 587 37,000  Level Chicago Center
Thu 09:28:23 PM 41.0631 -92.0458 86° East 512 589 37,000  Level Chicago Center
Thu 09:29:25 PM 41.0739 -91.8192 86° East 514 592 37,000  Level Chicago Center
Thu 09:30:27 PM 41.0831 -91.6417 86° East 515 593 37,000  Level Chicago Center
Thu 09:31:28 PM 41.0919 -91.4519 86° East 516 594 37,000  Level Chicago Center
Thu 09:32:30 PM 41.1006 -91.2614 87° East 517 595 37,000  Level Chicago Center
Thu 09:33:32 PM 41.1083 -91.0711 87° East 516 594 37,000  Level Chicago Center
Thu 09:34:33 PM 41.1164 -90.8689 87° East 517 595 37,000  Level Chicago Center
Thu 09:35:35 PM 41.1247 -90.6489 87° East 522 601 37,000  Level Chicago Center
Thu 09:36:37 PM 41.1314 -90.4561 87° East 522 601 37,000  Level Chicago Center
Thu 09:37:38 PM 41.1386 -90.2633 87° East 522 601 37,000  Level Chicago Center
Thu 09:38:40 PM 41.1447 -90.0700 88° East 521 600 37,000  Level Chicago Center
Thu 09:39:41 PM 41.1508 -89.8744 88° East 525 604 37,000  Level Chicago Center
Thu 09:40:43 PM 41.1572 -89.6778 87° East 529 609 37,000  Level Chicago Center
Thu 09:41:45 PM 41.1922 -89.4872 76° East 527 606 37,000  Level Chicago Center
Thu 09:42:46 PM 41.2475 -89.3056 68° East 529 609 37,000  Level Chicago Center
Thu 09:43:48 PM 41.3067 -89.1153 67° East 527 606 37,000  Level Chicago Center
Thu 09:44:49 PM 41.3611 -88.9361 68° East 525 604 37,000  Level Chicago Center
Thu 09:45:51 PM 41.4147 -88.7556 68° East 525 604 37,000  Level Chicago Center
Thu 09:46:52 PM 41.4689 -88.5772 68° East 523 602 37,000  Level Chicago Center
Thu 09:47:54 PM 41.5331 -88.3606 68° East 522 601 37,000  Level Chicago Center
Thu 09:48:55 PM 41.5631 -88.1694 78° East 533 613 37,000  Level Chicago Center
Thu 09:49:57 PM 41.5869 -87.9753 81° East 519 597 37,000  Level Chicago Center
Thu 09:50:58 PM 41.6092 -87.7836 81° East 518 596 37,000 244 Level Chicago Center
Thu 09:52:00 PM 41.6306 -87.5925 81° East 518 596 37,500 585 Climbing Chicago Center
Thu 09:53:01 PM 41.6531 -87.3989 81° East 524 603 38,200 732 Climbing Chicago Center
Thu 09:54:03 PM 41.6739 -87.2011 82° East 532 612 39,000 390 Climbing Chicago Center
Thu 09:55:04 PM 41.6953 -87.0069 82° East 532 612 39,000  Level Chicago Center
Thu 09:56:06 PM 41.7167 -86.8156 81° East 524 603 39,000  Level Chicago Center
Thu 09:57:07 PM 41.7381 -86.6186 82° East 523 602 39,000  Level Chicago Center
Thu 09:58:09 PM 41.7575 -86.4264 82° East 522 601 39,000  Level Chicago Center
Thu 09:59:10 PM 41.7775 -86.2342 82° East 522 601 39,000  Level Chicago Center
Thu 10:00:11 PM 41.8017 -86.0008 82° East 525 604 39,000  Level Chicago Center
Thu 10:01:13 PM 41.8211 -85.8067 82° East 524 603 39,000  Level Chicago Center
Thu 10:02:14 PM 41.8414 -85.6100 82° East 527 606 39,000  Level Chicago Center
Thu 10:03:16 PM 41.8611 -85.4103 82° East 530 610 39,000  Level Chicago Center
Thu 10:04:17 PM 41.8800 -85.2125 83° East 528 608 39,000  Level Chicago Center
Thu 10:05:18 PM 41.9000 -85.0161 82° East 528 608 39,000  Level Chicago Center
Thu 10:06:20 PM 41.9244 -84.8175 81° East 535 616 39,000  Level Chicago Center
Thu 10:07:28 PM 41.9567 -84.5906 79° East 519 597 39,000  Level Cleveland Center
Thu 10:08:28 PM 41.9800 -84.3908 81° East 524 603 39,000  Level Cleveland Center
Thu 10:09:28 PM 41.9983 -84.2156 82° East 524 603 39,000  Level Cleveland Center
Thu 10:10:28 PM 42.0211 -84.0186 81° East 524 603 39,000  Level Cleveland Center
Thu 10:11:28 PM 42.0436 -83.8156 81° East 534 615 39,000  Level Cleveland Center
Thu 10:12:28 PM 42.0636 -83.6236 82° East 539 620 39,000  Level Cleveland Center
Thu 10:13:28 PM 42.0897 -83.4178 80° East 544 626 39,000  Level Cleveland Center
Thu 10:14:28 PM 42.1108 -83.2225 82° East 537 618 39,000  Level Cleveland Center
Thu 10:15:28 PM 42.1297 -83.0331 82° East 532 612 39,000  Level Cleveland Center
Thu 10:16:28 PM 42.1483 -82.8350 83° East 526 605 39,000  Level Cleveland Center
Thu 10:17:28 PM 42.1731 -82.6369 80° East 526 605 39,000  Level Cleveland Center
Thu 10:18:28 PM 42.1931 -82.4414 82° East 526 605 39,000  Level Cleveland Center
Thu 10:19:28 PM 42.2106 -82.2456 83° East 526 605 39,000  Level Cleveland Center
Thu 10:20:28 PM 42.2364 -82.0247 81° East 526 605 39,000  Level Cleveland Center
Thu 10:21:28 PM 42.2556 -81.8258 83° East 531 611 39,000  Level Cleveland Center
Thu 10:22:28 PM 42.2719 -81.6494 83° East 536 617 39,000  Level Cleveland Center
Thu 10:23:28 PM 42.2903 -81.4506 83° East 533 613 39,000  Level Cleveland Center
Thu 10:24:28 PM 42.3081 -81.2514 83° East 533 613 39,000  Level Cleveland Center
Thu 10:25:28 PM 42.3281 -81.0522 82° East 538 619 39,000  Level Cleveland Center
Thu 10:26:28 PM 42.3453 -80.8556 83° East 538 619 39,000  Level Cleveland Center
Thu 10:27:28 PM 42.3644 -80.6394 83° East 538 619 39,000  Level Cleveland Center
Thu 10:28:28 PM 42.3808 -80.4456 83° East 528 608 39,000  Level Cleveland Center
Thu 10:29:28 PM 42.3992 -80.2514 83° East 523 602 39,000  Level Cleveland Center
Thu 10:30:28 PM 42.4131 -80.0544 84° East 518 596 39,000  Level Cleveland Center
Thu 10:31:28 PM 42.4269 -79.8800 84° East 518 596 39,000  Level Cleveland Center
Thu 10:32:28 PM 42.4422 -79.6856 84° East 523 602 39,000  Level Cleveland Center
Thu 10:33:28 PM 42.4572 -79.4883 84° East 523 602 39,000  Level Cleveland Center
Thu 10:34:28 PM 42.4717 -79.2800 85° East 511 588 39,000  Level Cleveland Center
Thu 10:35:28 PM 42.4839 -79.0853 85° East 511 588 39,000  Level Cleveland Center
Thu 10:36:28 PM 42.5000 -78.8936 83° East 516 594 39,000  Level Cleveland Center
Thu 10:37:28 PM 42.5136 -78.6989 85° East 516 594 39,000  Level Cleveland Center
Thu 10:38:28 PM 42.5253 -78.5236 85° East 519 597 39,000  Level Cleveland Center
Thu 10:39:28 PM 42.5383 -78.3289 85° East 519 597 39,000  Level Cleveland Center
Thu 10:40:28 PM 42.5508 -78.1339 85° East 519 597 39,000  Level Cleveland Center
Thu 10:41:28 PM 42.5656 -77.9417 84° East 519 597 39,000  Level Cleveland Center
Thu 10:42:28 PM 42.5775 -77.7464 85° East 519 597 39,000  Level Cleveland Center
Thu 10:43:28 PM 42.5892 -77.5542 85° East 519 597 39,000  Level Cleveland Center
Thu 10:45:04 PM 42.6056 -77.2364 86° East 531 611 39,000  Level Boston Center
Thu 10:46:04 PM 42.6175 -77.0456 85° East 521 600 39,000  Level Boston Center
Thu 10:47:04 PM 42.6275 -76.8486 86° East 516 594 39,000  Level Boston Center
Thu 10:48:04 PM 42.6369 -76.6572 86° East 516 594 39,000  Level Boston Center
Thu 10:49:04 PM 42.6481 -76.4658 85° East 516 594 39,000  Level Boston Center
Thu 10:50:04 PM 42.6567 -76.2744 86° East 516 594 39,000  Level Boston Center
Thu 10:51:04 PM 42.6678 -76.0633 86° East 511 588 39,000  Level Boston Center
Thu 10:52:04 PM 42.6758 -75.8744 87° East 511 588 39,000  Level Boston Center
Thu 10:53:04 PM 42.6833 -75.6828 87° East 511 588 39,000  Level Boston Center
Thu 10:54:04 PM 42.6908 -75.4911 87° East 511 588 39,000 -100 Level Boston Center
Thu 10:55:04 PM 42.6981 -75.2964 87° East 511 588 38,800 -1,350 Descending Boston Center
Thu 10:56:04 PM 42.7067 -75.1075 86° East 511 588 36,300 -2,400 Descending Boston Center
Thu 10:57:04 PM 42.7131 -74.9211 87° East 504 580 34,000 -2,200 Descending Boston Center
Thu 10:58:04 PM 42.7189 -74.7406 87° East 488 562 31,900 -2,100 Descending Boston Center
Thu 10:59:04 PM 42.7264 -74.5656 87° East 477 549 29,800 -1,550 Descending Boston Center
Thu 11:00:04 PM 42.7294 -74.3989 89° East 456 525 28,800 -950 Descending Boston Center
Thu 11:01:04 PM 42.7344 -74.2267 88° East 448 516 27,900 -950 Descending Boston Center
Thu 11:02:04 PM 42.7392 -74.0542 88° East 448 516 26,900 -1,000 Descending Boston Center
Thu 11:03:04 PM 42.7436 -73.8819 88° East 448 516 25,900 -1,000 Descending Boston Center
Thu 11:04:04 PM 42.7497 -73.7153 87° East 448 516 24,900 -1,000 Descending Boston Center
Thu 11:05:04 PM 42.7575 -73.5486 86° East 442 509 23,900 -950 Descending Boston Center
Thu 11:06:04 PM 42.7653 -73.3875 86° East 437 503 23,000 -1,000 Descending Boston Center
Thu 11:07:04 PM 42.7686 -73.2264 88° East 431 496 21,900 -1,050 Descending Boston Center
Thu 11:08:04 PM 42.7739 -73.0625 87° East 426 490 20,900 -1,000 Descending Boston Center
Thu 11:09:04 PM 42.7789 -72.8983 88° East 426 490 19,900 -1,000 Descending Boston Center
Thu 11:10:04 PM 42.7856 -72.7483 86° East 415 478 18,900 -1,150 Descending Boston Center
Thu 11:11:04 PM 42.7881 -72.5928 89° East 401 461 17,600 -1,800 Descending Boston Center
Thu 11:12:04 PM 42.7922 -72.4428 88° East 401 461 15,300 -2,300 Descending Boston Center
Thu 11:13:04 PM 42.7942 -72.3014 89° East 401 461 13,000 -2,200 Descending Boston Center
Thu 11:14:04 PM 42.7897 -72.1628 92° East 370 426 10,900 -1,350 Descending Boston Center
Thu 11:15:04 PM 42.7833 -72.0497 94° East 344 396 10,300 -1,000 Descending Boston Center
Thu 11:16:04 PM 42.7722 -71.9253 97° East 307 353 8,900 -1,400 Descending Boston Center
Thu 11:17:04 PM 42.7614 -71.8264 98° East 295 339 7,500 -1,500 Descending Boston Center
Thu 11:18:04 PM 42.7461 -71.7050 100° East 295 339 5,900 -1,500 Descending Boston Center
Thu 11:19:04 PM 42.7350 -71.6092 99° East 295 339 4,500 -1,300 Descending Boston Center
Thu 11:20:04 PM 42.7217 -71.4989 99° East 279 321 3,300 -1,200 Descending Boston Center
Thu 11:21:04 PM 42.7189 -71.4114 92° East 261 300 2,100 -650 Descending Boston Center
Thu 11:22:04 PM 42.7472 -71.3431 61° Northeast 200 230 2,000 -50 Descending Boston Center
Thu 11:23:04 PM 42.7953 -71.3536 351° North 165 190 2,000  Level Boston Center
Thu 11:24:04 PM 42.8456 -71.3839 336° Northwest 170 196 2,000 -350 Level Boston Center
Thu 11:25:04 PM 42.8750 -71.4003 338° Northwest 146 168 1,300 -700 Descending Boston Center
Thu 11:26:04 PM 42.9086 -71.4197 337° Northwest 123 142 600 -450 Descending Boston Center
Thu 11:27:04 PM 42.9400 -71.4417 333° Northwest 116 133 400 -200 Descending Boston Center

Login

Don't have an account? Register now (free) for customized features, flight alerts, and more!